RYR4AM EDDH-EKCH
Flight info
| Callsign | RYR4AM |
|---|---|
| Flight time | N/A |
| Altitude | 23000 |
| Route | LUGEG3G/33 LUGEG P605 GESKA/N0426F220 Z711 MONAK |
| Aircraft | B738/M-SDE2E3FGHIRWXY/LB1 |
Departure
| Time | N/A |
|---|---|
| Airport | Hamburg Helmut Schmidt Airport (EDDH) |
Arrival
| Time | 2026-04-30 17:54 |
|---|---|
| Airport | Copenhagen Kastrup Airport (EKCH) |
| Time | Latitude | Longitude | Altitude | Speed | Heading |
|---|---|---|---|---|---|
| 2026-04-30 17:39 | 54.73825 | 11.82622 | 19536 ft | 392 kts | 40° |
| 2026-04-30 17:41 | 54.90279 | 11.95901 | 17016 ft | 305 kts | 25° |
| 2026-04-30 17:42 | 54.94123 | 11.98782 | 16009 ft | 300 kts | 25° |
| 2026-04-30 17:42 | 54.99774 | 12.03029 | 14568 ft | 292 kts | 25° |
| 2026-04-30 17:43 | 55.03416 | 12.05776 | 13608 ft | 289 kts | 25° |
| 2026-04-30 17:44 | 55.08903 | 12.09920 | 12150 ft | 284 kts | 25° |
| 2026-04-30 17:44 | 55.14282 | 12.13984 | 10682 ft | 282 kts | 24° |
| 2026-04-30 17:46 | 55.22867 | 12.20417 | 8630 ft | 270 kts | 23° |
| 2026-04-30 17:47 | 55.29660 | 12.25592 | 6948 ft | 262 kts | 23° |
| 2026-04-30 17:48 | 55.36231 | 12.30627 | 5216 ft | 257 kts | 22° |
| 2026-04-30 17:48 | 55.41078 | 12.34354 | 4192 ft | 241 kts | 21° |
| 2026-04-30 17:49 | 55.46065 | 12.39978 | 3597 ft | 198 kts | 37° |
| 2026-04-30 17:50 | 55.49992 | 12.46074 | 2519 ft | 178 kts | 36° |
| 2026-04-30 17:51 | 55.52597 | 12.50108 | 1845 ft | 154 kts | 37° |
| 2026-04-30 17:52 | 55.54932 | 12.53727 | 1227 ft | 146 kts | 38° |
| 2026-04-30 17:53 | 55.58469 | 12.59134 | 288 ft | 147 kts | 41° |
| 2026-04-30 17:54 | 55.60370 | 12.62128 | 25 ft | 27 kts | 41° |
| 2026-04-30 17:55 | 55.60577 | 12.62269 | 25 ft | 3 kts | 18° |
| 2026-04-30 17:56 | 55.60755 | 12.62383 | 25 ft | 12 kts | 15° |
| 2026-04-30 17:57 | 55.60889 | 12.62555 | 25 ft | 8 kts | 40° |
| 2026-04-30 17:58 | 55.61081 | 12.62852 | 25 ft | 13 kts | 41° |
| 2026-04-30 17:59 | 55.61375 | 12.63309 | 25 ft | 17 kts | 42° |
| 2026-04-30 18:00 | 55.61708 | 12.63830 | 25 ft | 9 kts | 41° |
| 2026-04-30 18:00 | 55.61923 | 12.64106 | 25 ft | 16 kts | 32° |
| 2026-04-30 18:01 | 55.62075 | 12.64243 | 25 ft | 8 kts | 28° |
| 2026-04-30 18:02 | 55.62224 | 12.64379 | 25 ft | 15 kts | 26° |
| 2026-04-30 18:02 | 55.62304 | 12.64642 | 25 ft | 13 kts | 67° |
| 2026-04-30 18:03 | 55.62285 | 12.65056 | 25 ft | 20 kts | 126° |
| 2026-04-30 18:04 | 55.62373 | 12.65202 | 25 ft | 8 kts | 356° |
| 2026-04-30 18:05 | 55.62443 | 12.65520 | 25 ft | 8 kts | 89° |
| 2026-04-30 18:06 | 55.62520 | 12.65686 | 25 ft | 0 kts | 348° |